Time;durP1;ratioP1;P1;durP2;ratioP2;P2;SDS_P1;SDS_P2;PMS_P1;PMS_P2;Temp;Humidity;BMP_temperature;BMP_pressure;BME280_temperature;BME280_humidity;BME280_pressure;Samples;Min_cycle;Max_cycle;Signal;HPM_P1;HPM_P2
2023/12/07 00:02:14;;;;;;;3.83;2.50;;;;;;;3.03;76.38;98875.63;4509198;31;33967;-89
2023/12/07 00:04:42;;;;;;;2.50;1.33;;;;;;;2.94;76.75;98875.25;4510853;31;34131;-87
2023/12/07 00:07:09;;;;;;;3.92;2.20;;;;;;;3.14;76.25;98886.25;4513830;31;33529;-89
2023/12/07 00:09:37;;;;;;;3.87;2.20;;;;;;;3.07;75.96;98891.94;4496209;31;34173;-88
2023/12/07 00:12:06;;;;;;;3.62;2.30;;;;;;;2.97;76.26;98887.31;4506417;31;34053;-86
2023/12/07 00:14:33;;;;;;;2.45;1.30;;;;;;;3.10;76.00;98886.94;4508928;31;33866;-87
2023/12/07 00:17:00;;;;;;;4.70;2.80;;;;;;;2.75;77.53;98883.91;4514447;31;33734;-87
2023/12/07 00:19:28;;;;;;;3.20;1.62;;;;;;;2.85;76.90;98880.91;4507925;31;33929;-89
2023/12/07 00:21:55;;;;;;;4.07;2.15;;;;;;;2.96;76.47;98880.47;4504578;31;34580;-86
2023/12/07 00:24:23;;;;;;;5.32;3.55;;;;;;;3.01;76.44;98881.50;4511943;31;34330;-91
2023/12/07 00:26:51;;;;;;;3.15;1.60;;;;;;;3.19;75.65;98884.75;4512542;31;34232;-89
2023/12/07 00:29:18;;;;;;;4.55;2.00;;;;;;;3.39;74.94;98881.22;4495981;31;33195;-90
2023/12/07 00:31:46;;;;;;;6.37;4.47;;;;;;;3.46;74.89;98886.59;4507915;31;34836;-88
2023/12/07 00:34:13;;;;;;;5.40;2.40;;;;;;;3.05;75.68;98883.34;4512649;31;33942;-87
2023/12/07 00:36:41;;;;;;;5.45;2.70;;;;;;;2.72;76.73;98883.78;4505887;31;33192;-89
2023/12/07 00:39:08;;;;;;;7.50;5.70;;;;;;;3.11;76.01;98888.72;4499126;31;33933;-87
2023/12/07 00:41:36;;;;;;;8.18;6.82;;;;;;;2.62;77.73;98892.81;4511682;31;33849;-89
2023/12/07 00:44:05;;;;;;;7.72;6.07;;;;;;;2.23;79.31;98886.94;4505011;31;34505;-88
2023/12/07 00:46:33;;;;;;;5.30;2.58;;;;;;;2.44;78.67;98887.81;4504884;31;33566;-87
2023/12/07 00:49:00;;;;;;;4.10;2.45;;;;;;;2.32;79.37;98891.59;4498917;31;33755;-89
2023/12/07 00:51:28;;;;;;;6.28;3.65;;;;;;;2.48;78.98;98882.84;4512698;31;33901;-87
2023/12/07 00:53:55;;;;;;;7.55;3.45;;;;;;;2.67;78.12;98891.28;4502933;31;34102;-86
2023/12/07 00:56:23;;;;;;;8.82;7.10;;;;;;;2.90;76.77;98888.75;4513175;31;34479;-88
2023/12/07 00:58:51;;;;;;;4.62;2.85;;;;;;;2.81;77.21;98886.72;4508046;31;33419;-85
2023/12/07 01:01:18;;;;;;;8.70;7.30;;;;;;;3.05;76.27;98889.34;4511973;31;34932;-86
2023/12/07 01:03:46;;;;;;;8.00;6.18;;;;;;;2.81;76.83;98884.16;4508494;31;34023;-84
2023/12/07 01:06:15;;;;;;;7.15;3.10;;;;;;;2.98;76.10;98889.06;4507150;31;33327;-86
2023/12/07 01:08:43;;;;;;;5.32;2.78;;;;;;;2.74;77.37;98887.31;4512924;31;33641;-88
2023/12/07 01:11:10;;;;;;;8.20;6.90;;;;;;;3.47;74.53;98878.06;4506835;31;34104;-86
2023/12/07 01:13:38;;;;;;;8.00;7.15;;;;;;;3.04;76.31;98882.50;4513891;31;33822;-87
2023/12/07 01:16:06;;;;;;;6.25;3.17;;;;;;;3.04;75.66;98882.50;4508366;31;33923;-89
2023/12/07 01:18:33;;;;;;;9.27;7.65;;;;;;;2.84;76.62;98876.62;4512000;31;33873;-87
2023/12/07 01:21:01;;;;;;;6.72;3.55;;;;;;;2.58;77.89;98877.28;4511389;31;34272;-85
2023/12/07 01:23:28;;;;;;;9.27;8.10;;;;;;;2.44;78.51;98877.59;4510263;31;33541;-88
2023/12/07 01:25:56;;;;;;;7.03;3.75;;;;;;;2.47;78.31;98875.97;4510780;31;33448;-85
2023/12/07 01:28:24;;;;;;;8.68;7.68;;;;;;;2.97;76.76;98871.94;4496775;31;33702;-86
2023/12/07 01:30:51;;;;;;;8.93;7.37;;;;;;;2.81;76.79;98873.94;4510652;31;35173;-88
2023/12/07 01:33:19;;;;;;;5.37;2.87;;;;;;;3.01;76.05;98868.69;4512403;31;34007;-86
2023/12/07 01:35:47;;;;;;;6.82;3.67;;;;;;;2.91;76.67;98868.31;4511911;31;33287;-85
2023/12/07 01:38:14;;;;;;;6.15;3.12;;;;;;;2.68;77.67;98864.00;4498444;31;34485;-87
2023/12/07 01:40:42;;;;;;;7.25;6.25;;;;;;;2.92;77.08;98867.53;4498912;31;34488;-86
2023/12/07 01:43:12;;;;;;;5.50;2.60;;;;;;;2.93;76.24;98869.28;4503672;31;34770;-89
2023/12/07 01:45:39;;;;;;;4.60;2.62;;;;;;;2.80;77.21;98867.03;4495345;31;32313;-89
2023/12/07 01:48:07;;;;;;;4.68;2.83;;;;;;;2.48;78.01;98870.91;4498201;31;33568;-87
2023/12/07 01:50:36;;;;;;;4.68;2.47;;;;;;;3.02;76.26;98867.88;4484464;31;34598;-87
2023/12/07 01:53:04;;;;;;;4.05;2.40;;;;;;;2.49;77.66;98859.84;4513691;31;33495;-89
2023/12/07 01:55:36;;;;;;;6.50;5.25;;;;;;;2.97;76.55;98857.47;4512446;31;34286;-85
2023/12/07 01:58:04;;;;;;;3.92;2.28;;;;;;;2.69;77.22;98863.22;4504937;31;34888;-89
2023/12/07 02:00:33;;;;;;;6.62;5.65;;;;;;;2.80;77.05;98868.72;4498906;31;34785;-86
2023/12/07 02:03:03;;;;;;;4.82;2.60;;;;;;;2.49;77.83;98869.22;4498081;31;33625;-87
2023/12/07 02:05:31;;;;;;;5.97;2.80;;;;;;;2.40;79.33;98867.19;4491475;31;33117;-85
2023/12/07 02:07:59;;;;;;;4.30;2.50;;;;;;;2.12;79.81;98867.72;4486695;31;34851;-89
2023/12/07 02:10:27;;;;;;;4.62;2.50;;;;;;;2.26;79.80;98866.63;4503674;31;34933;-85
2023/12/07 02:12:55;;;;;;;6.43;5.20;;;;;;;2.27;79.79;98870.91;4494725;31;33246;-89
2023/12/07 02:15:33;;;;;;;4.72;2.78;;;;;;;2.61;78.31;98865.50;4488478;31;33036;-90
2023/12/07 02:18:16;;;;;;;7.53;5.90;;;;;;;2.51;79.15;98857.37;4496330;31;33959;-87
2023/12/07 02:20:53;;;;;;;3.92;2.37;;;;;;;2.44;79.00;98867.34;4498702;31;33946;-90
2023/12/07 02:23:21;;;;;;;4.35;2.20;;;;;;;2.65;78.46;98861.31;4507225;31;34603;-88
2023/12/07 02:26:09;;;;;;;8.15;6.20;;;;;;;2.18;79.81;98853.50;4488226;31;33941;-88
2023/12/07 02:28:37;;;;;;;8.20;6.30;;;;;;;2.19;79.81;98864.63;4511861;31;33775;-89
2023/12/07 02:31:04;;;;;;;5.95;2.92;;;;;;;2.02;80.32;98858.81;4512965;31;34203;-86
2023/12/07 02:33:32;;;;;;;6.18;3.53;;;;;;;1.84;81.31;98869.16;4511622;31;33061;-90
2023/12/07 02:36:00;;;;;;;6.70;3.10;;;;;;;1.94;80.81;98866.19;4497540;31;33156;-89
2023/12/07 02:38:28;;;;;;;8.57;7.15;;;;;;;2.10;80.46;98860.00;4510127;31;33860;-88
2023/12/07 02:40:55;;;;;;;5.03;3.20;;;;;;;2.58;78.89;98854.25;4491627;31;34131;-90
2023/12/07 02:43:23;;;;;;;9.05;8.10;;;;;;;2.34;79.40;98857.56;4485885;31;34614;-88
2023/12/07 02:45:52;;;;;;;9.00;7.65;;;;;;;2.15;80.37;98867.88;4505857;31;33331;-86
2023/12/07 02:48:20;;;;;;;9.32;7.90;;;;;;;2.32;79.35;98864.31;4499505;31;34695;-88
2023/12/07 02:50:48;;;;;;;6.93;3.53;;;;;;;2.54;78.39;98862.59;4491461;31;34156;-88
2023/12/07 02:53:16;;;;;;;9.27;7.80;;;;;;;2.72;78.18;98857.31;4487088;31;32317;-88
2023/12/07 02:55:43;;;;;;;6.85;4.12;;;;;;;2.05;80.49;98871.75;4496732;31;34178;-86
2023/12/07 02:58:11;;;;;;;11.80;9.95;;;;;;;1.99;80.98;98865.50;4489959;31;34646;-87
2023/12/07 03:00:39;;;;;;;10.45;9.35;;;;;;;2.02;81.13;98871.59;4498489;31;33838;-86
2023/12/07 03:03:06;;;;;;;8.10;4.00;;;;;;;2.74;77.96;98866.81;4487046;31;33592;-89
2023/12/07 03:05:34;;;;;;;12.55;10.25;;;;;;;2.21;79.81;98867.25;4495911;31;33452;-87
2023/12/07 03:08:01;;;;;;;11.38;5.25;;;;;;;2.36;79.28;98867.88;4486805;31;33833;-86
2023/12/07 03:10:29;;;;;;;12.50;10.75;;;;;;;2.55;78.63;98869.47;4486589;31;35003;-88
2023/12/07 03:12:57;;;;;;;13.32;11.45;;;;;;;2.38;78.46;98872.22;4488360;31;35043;-86
2023/12/07 03:15:24;;;;;;;9.52;5.28;;;;;;;1.94;80.58;98889.19;4488647;31;33274;-88
2023/12/07 03:17:52;;;;;;;14.52;12.13;;;;;;;2.55;78.71;98882.28;4484727;31;33449;-89
2023/12/07 03:20:19;;;;;;;10.80;4.72;;;;;;;2.52;78.82;98874.47;4492817;31;34258;-87
2023/12/07 03:22:47;;;;;;;13.43;12.02;;;;;;;2.71;78.37;98876.94;4496771;31;34015;-87
2023/12/07 03:25:15;;;;;;;10.23;5.32;;;;;;;2.25;80.29;98885.34;4486700;31;33456;-87
2023/12/07 03:27:42;;;;;;;10.02;4.65;;;;;;;1.89;81.69;98893.19;4496714;31;34514;-90
2023/12/07 03:30:10;;;;;;;14.25;12.65;;;;;;;2.04;81.17;98894.66;4495510;31;34179;-88
2023/12/07 03:32:38;;;;;;;9.13;4.90;;;;;;;2.12;80.83;98894.19;4499778;31;33653;-87
2023/12/07 03:35:06;;;;;;;11.38;6.05;;;;;;;2.10;81.02;98892.38;4492227;31;33247;-89
2023/12/07 03:37:34;;;;;;;11.88;5.95;;;;;;;2.13;80.33;98892.50;4497970;31;34279;-87
2023/12/07 03:40:04;;;;;;;15.55;7.35;;;;;;;2.58;78.73;98895.19;4490341;31;33746;-87
2023/12/07 03:42:32;;;;;;;16.55;14.00;;;;;;;2.71;77.93;98887.19;4493549;31;33883;-87
2023/12/07 03:45:19;;;;;;;9.85;5.15;;;;;;;2.50;78.78;98886.31;4493244;31;34742;-86
2023/12/07 03:47:47;;;;;;;14.10;6.87;;;;;;;2.86;77.08;98895.44;4490755;31;33897;-87
2023/12/07 03:50:16;;;;;;;11.60;5.95;;;;;;;2.91;77.03;98891.38;4482383;32;34129;-90
2023/12/07 03:52:43;;;;;;;10.25;6.18;;;;;;;2.74;77.25;98891.56;4480445;32;33744;-86
2023/12/07 03:55:11;;;;;;;15.55;13.85;;;;;;;2.96;76.82;98896.69;4483159;32;32986;-86
2023/12/07 03:57:39;;;;;;;8.80;5.43;;;;;;;2.91;76.40;98888.81;4483657;32;33774;-85
2023/12/07 04:00:09;;;;;;;16.33;13.70;;;;;;;2.77;77.17;98900.22;4480951;32;34748;-85
2023/12/07 04:02:37;;;;;;;10.90;6.20;;;;;;;2.76;76.56;98892.47;4482332;32;34672;-86
2023/12/07 04:05:05;;;;;;;10.60;5.62;;;;;;;2.93;76.10;98894.88;4477350;32;33205;-84
2023/12/07 04:07:32;;;;;;;11.77;6.03;;;;;;;3.19;75.50;98901.81;4468679;32;33298;-85
2023/12/07 04:10:00;;;;;;;11.00;5.47;;;;;;;3.05;75.68;98902.16;4470997;32;33307;-86
2023/12/07 04:12:27;;;;;;;9.98;6.25;;;;;;;3.14;75.90;98906.75;4473681;32;33617;-85
2023/12/07 04:14:55;;;;;;;9.70;5.37;;;;;;;3.13;75.37;98908.44;4478269;32;32988;-86
2023/12/07 04:17:22;;;;;;;15.93;13.62;;;;;;;2.96;76.24;98906.06;4469571;32;33063;-86
2023/12/07 04:19:50;;;;;;;14.50;13.00;;;;;;;2.90;76.20;98901.56;4472860;32;33558;-88
2023/12/07 04:22:17;;;;;;;10.90;6.57;;;;;;;2.75;76.00;98914.62;4478146;32;34551;-85
2023/12/07 04:24:45;;;;;;;11.77;6.28;;;;;;;2.75;77.11;98911.22;4483054;32;33234;-85
2023/12/07 04:27:13;;;;;;;12.85;6.32;;;;;;;2.44;78.87;98915.97;4479778;32;34265;-85
2023/12/07 04:29:40;;;;;;;12.57;6.62;;;;;;;2.36;79.00;98917.34;4479613;32;34147;-86
2023/12/07 04:32:08;;;;;;;9.00;5.75;;;;;;;3.08;76.08;98903.97;4468493;32;33798;-86
2023/12/07 04:34:36;;;;;;;16.05;13.60;;;;;;;2.49;77.36;98915.28;4474036;32;34156;-86
2023/12/07 04:37:03;;;;;;;9.57;5.30;;;;;;;2.10;79.66;98923.06;4471041;32;34020;-85
2023/12/07 04:39:32;;;;;;;10.20;6.10;;;;;;;2.40;78.55;98929.44;4482770;32;33904;-85
2023/12/07 04:42:00;;;;;;;16.15;13.45;;;;;;;2.81;77.48;98924.25;4472646;32;33983;-85
2023/12/07 04:44:28;;;;;;;12.52;6.47;;;;;;;2.50;78.29;98927.25;4478909;32;34213;-84
2023/12/07 04:46:56;;;;;;;9.00;4.95;;;;;;;2.65;77.27;98926.22;4473559;32;33839;-85
2023/12/07 04:49:23;;;;;;;10.43;5.43;;;;;;;2.43;78.14;98932.13;4489216;31;34901;-85
2023/12/07 04:51:51;;;;;;;9.73;4.70;;;;;;;2.75;77.25;98930.00;4509785;31;33928;-85
2023/12/07 04:54:19;;;;;;;11.15;5.50;;;;;;;2.69;77.90;98934.87;4511274;31;33021;-86
2023/12/07 04:56:47;;;;;;;14.82;11.35;;;;;;;2.77;77.15;98938.62;4513756;31;33747;-88
2023/12/07 04:59:14;;;;;;;8.05;4.60;;;;;;;2.60;78.13;98939.63;4508369;31;32403;-87
2023/12/07 05:01:42;;;;;;;8.07;3.60;;;;;;;2.79;77.06;98936.13;4513804;31;33915;-86
2023/12/07 05:04:10;;;;;;;12.50;9.90;;;;;;;2.69;77.63;98937.44;4486584;31;33512;-84
2023/12/07 05:06:37;;;;;;;10.38;3.90;;;;;;;2.57;77.89;98954.84;4504262;31;34583;-84
2023/12/07 05:09:05;;;;;;;9.10;3.90;;;;;;;2.90;77.01;98945.09;4503546;31;34145;-86
2023/12/07 05:11:33;;;;;;;10.32;8.48;;;;;;;2.61;78.01;98944.81;4499726;31;33903;-86
2023/12/07 05:14:01;;;;;;;5.95;3.25;;;;;;;2.88;76.25;98954.41;4506844;31;33375;-87
2023/12/07 05:16:29;;;;;;;6.68;3.55;;;;;;;3.12;76.17;98957.06;4489303;31;32659;-85
2023/12/07 05:18:57;;;;;;;11.75;8.98;;;;;;;2.93;76.97;98958.88;4501338;31;33751;-83
2023/12/07 05:21:24;;;;;;;6.57;3.72;;;;;;;3.01;76.00;98960.88;4489237;31;32432;-84
2023/12/07 05:23:52;;;;;;;6.37;3.70;;;;;;;3.21;75.83;98959.97;4504779;31;33040;-85
2023/12/07 05:26:21;;;;;;;9.38;7.65;;;;;;;3.18;75.69;98962.38;4506655;31;34422;-84
2023/12/07 05:28:49;;;;;;;6.32;3.65;;;;;;;2.64;77.57;98973.06;4509338;31;33705;-84
2023/12/07 05:31:17;;;;;;;10.02;8.13;;;;;;;2.84;76.87;98966.22;4503056;31;34678;-85
2023/12/07 05:33:45;;;;;;;6.97;3.58;;;;;;;2.59;78.07;98978.81;4506854;31;34121;-88
2023/12/07 05:36:12;;;;;;;10.10;8.43;;;;;;;2.06;80.27;98988.53;4508953;31;33668;-85
2023/12/07 05:38:40;;;;;;;10.32;8.32;;;;;;;2.31;79.73;98981.91;4504851;31;33655;-84
2023/12/07 05:41:07;;;;;;;8.40;3.62;;;;;;;2.51;78.48;98985.31;4502695;31;34563;-88
2023/12/07 05:43:35;;;;;;;8.80;4.37;;;;;;;2.54;78.12;98986.31;4502219;31;34341;-86
2023/12/07 05:46:03;;;;;;;8.55;4.25;;;;;;;2.72;78.09;98982.75;4504530;31;33816;-85
2023/12/07 05:48:30;;;;;;;12.80;8.70;;;;;;;2.87;76.74;98976.56;4491618;31;33811;-87
2023/12/07 05:50:58;;;;;;;11.00;9.60;;;;;;;2.59;77.99;98984.81;4505037;31;34879;-84
2023/12/07 05:53:26;;;;;;;12.73;10.50;;;;;;;2.37;79.12;98987.28;4500733;31;34069;-86
2023/12/07 05:55:54;;;;;;;9.55;5.15;;;;;;;2.52;78.60;98994.72;4500186;31;33542;-87
2023/12/07 05:58:21;;;;;;;13.70;11.70;;;;;;;2.39;79.78;98996.78;4490708;31;33787;-87
2023/12/07 06:00:49;;;;;;;15.93;13.82;;;;;;;2.59;78.66;99004.41;4509010;31;33902;-86
2023/12/07 06:03:17;;;;;;;12.82;6.47;;;;;;;2.17;80.35;99007.78;4499080;31;33551;-89
2023/12/07 06:05:46;;;;;;;9.57;5.55;;;;;;;2.65;78.29;99005.56;4500339;31;33896;-85
2023/12/07 06:08:14;;;;;;;9.60;5.70;;;;;;;2.61;78.55;98997.66;4502904;31;33579;-85
2023/12/07 06:10:41;;;;;;;16.27;13.90;;;;;;;2.40;79.14;99008.75;4508647;31;33688;-85
2023/12/07 06:13:10;;;;;;;10.23;4.95;;;;;;;2.67;77.64;99003.91;4497000;31;33119;-86
2023/12/07 06:15:37;;;;;;;14.63;6.47;;;;;;;2.57;78.15;99006.03;4512340;31;34013;-85
2023/12/07 06:18:05;;;;;;;10.73;5.60;;;;;;;2.50;79.12;99009.13;4512789;31;34127;-87
2023/12/07 06:20:34;;;;;;;21.75;16.83;;;;;;;2.27;80.04;99011.59;4490637;31;33757;-86
2023/12/07 06:23:02;;;;;;;13.77;6.70;;;;;;;2.41;79.29;99020.72;4498007;31;33406;-87
2023/12/07 06:25:29;;;;;;;18.60;15.45;;;;;;;2.70;77.16;99013.41;4498841;31;34032;-88
2023/12/07 06:27:57;;;;;;;13.55;5.60;;;;;;;2.68;78.02;99017.59;4498124;31;34187;-86
2023/12/07 06:30:25;;;;;;;14.15;6.97;;;;;;;2.13;81.03;99028.03;4506870;31;34253;-88
2023/12/07 06:32:52;;;;;;;19.33;16.48;;;;;;;2.60;80.13;99026.63;4512716;31;33296;-89
2023/12/07 06:35:20;;;;;;;13.35;7.93;;;;;;;2.64;78.71;99026.81;4492162;31;34592;-87
2023/12/07 06:37:47;;;;;;;40.58;31.87;;;;;;;2.51;79.37;99036.50;4492068;31;33753;-87
2023/12/07 06:40:15;;;;;;;13.57;7.87;;;;;;;2.54;78.59;99036.59;4498817;31;34016;-87
2023/12/07 06:42:43;;;;;;;12.40;6.28;;;;;;;2.68;78.59;99048.31;4486616;31;33010;-86
2023/12/07 06:45:10;;;;;;;15.05;7.45;;;;;;;2.19;79.80;99053.88;4500681;31;33820;-86
2023/12/07 06:47:38;;;;;;;20.02;17.17;;;;;;;2.61;78.36;99051.41;4486483;31;33153;-87
2023/12/07 06:50:12;;;;;;;13.65;7.22;;;;;;;2.42;78.80;99052.31;4500676;31;33832;-88
2023/12/07 06:52:40;;;;;;;22.20;18.60;;;;;;;1.91;80.79;99054.34;4500255;31;34299;-86
2023/12/07 06:55:10;;;;;;;16.83;8.10;;;;;;;2.02;81.11;99060.81;4500861;31;34481;-88
2023/12/07 06:57:39;;;;;;;23.65;18.60;;;;;;;1.99;81.19;99057.25;4515096;31;34811;-85
2023/12/07 07:00:10;;;;;;;11.90;6.37;;;;;;;2.23;80.19;99062.56;4493405;31;34537;-87
2023/12/07 07:02:39;;;;;;;16.85;8.13;;;;;;;2.29;80.66;99071.37;4512103;31;33119;-87
2023/12/07 07:05:07;;;;;;;15.85;6.72;;;;;;;2.21;81.01;99065.06;4511968;31;33881;-86
2023/12/07 07:07:35;;;;;;;17.65;8.50;;;;;;;2.43;78.96;99065.19;4494432;31;34576;-88
2023/12/07 07:10:02;;;;;;;20.88;10.52;;;;;;;2.49;79.08;99056.00;4502871;31;33909;-87
2023/12/07 07:12:30;;;;;;;32.70;26.40;;;;;;;2.62;78.73;99064.28;4502186;31;33576;-88
2023/12/07 07:14:58;;;;;;;25.67;13.90;;;;;;;2.32;79.28;99062.97;4499984;31;33750;-88
2023/12/07 07:17:25;;;;;;;28.17;21.40;;;;;;;2.48;79.21;99072.19;4512850;31;34914;-85
2023/12/07 07:19:55;;;;;;;13.27;8.25;;;;;;;2.25;79.81;99064.37;4507865;31;33862;-84
2023/12/07 07:22:22;;;;;;;27.45;21.83;;;;;;;2.10;80.89;99068.81;4511736;31;33338;-88
2023/12/07 07:24:50;;;;;;;27.27;21.00;;;;;;;2.44;79.53;99072.03;4512173;31;33765;-85
2023/12/07 07:27:17;;;;;;;30.50;22.02;;;;;;;2.31;79.72;99067.22;4503327;31;34061;-86
2023/12/07 07:29:46;;;;;;;16.40;8.75;;;;;;;2.43;79.58;99077.97;4507697;31;33872;-87
2023/12/07 07:32:13;;;;;;;27.75;9.02;;;;;;;2.06;81.17;99077.16;4509204;31;34329;-88
2023/12/07 07:34:41;;;;;;;26.42;21.35;;;;;;;2.43;80.00;99080.53;4500926;31;33779;-86
2023/12/07 07:37:08;;;;;;;20.37;10.10;;;;;;;2.34;79.70;99081.81;4510320;31;34040;-88
2023/12/07 07:39:36;;;;;;;24.70;9.13;;;;;;;2.69;78.26;99083.34;4498414;31;34529;-85
2023/12/07 07:42:04;;;;;;;14.85;7.90;;;;;;;2.52;79.08;99089.41;4507717;31;33333;-84
2023/12/07 07:44:32;;;;;;;16.40;8.35;;;;;;;2.54;79.07;99083.56;4504525;31;33885;-88
2023/12/07 07:46:59;;;;;;;28.30;22.95;;;;;;;2.51;79.27;99091.09;4506918;31;34412;-90
2023/12/07 07:49:27;;;;;;;17.87;8.13;;;;;;;2.38;79.90;99097.34;4482921;31;32976;-86
2023/12/07 07:51:54;;;;;;;14.75;7.70;;;;;;;2.48;79.71;99101.19;4491518;31;33444;-89
2023/12/07 07:54:22;;;;;;;24.42;19.55;;;;;;;2.67;78.66;99096.06;4496270;31;33427;-89
2023/12/07 07:56:49;;;;;;;24.65;19.00;;;;;;;2.62;78.52;99096.69;4485243;31;33936;-86
2023/12/07 07:59:17;;;;;;;17.73;9.52;;;;;;;2.49;78.43;99099.50;4484330;31;33890;-90
2023/12/07 08:01:47;;;;;;;18.48;7.57;;;;;;;2.69;78.82;99096.16;4482700;32;31967;-88
2023/12/07 08:04:15;;;;;;;26.42;19.35;;;;;;;2.24;80.34;99092.47;4482459;32;33949;-88
2023/12/07 08:06:43;;;;;;;18.00;8.50;;;;;;;2.18;80.89;99098.16;4491223;31;34049;-88
2023/12/07 08:09:10;;;;;;;21.40;8.40;;;;;;;3.02;77.68;99103.47;4488669;31;33471;-88
2023/12/07 08:11:38;;;;;;;16.67;8.30;;;;;;;3.14;77.10;99111.66;4495036;31;32303;-85
2023/12/07 08:14:05;;;;;;;23.92;18.45;;;;;;;2.72;78.19;99111.59;4484120;31;33755;-84
2023/12/07 08:16:33;;;;;;;28.35;21.55;;;;;;;2.75;77.79;99104.06;4484849;31;34025;-85
2023/12/07 08:19:00;;;;;;;16.60;9.10;;;;;;;2.84;77.67;99109.59;4483179;32;34544;-88
2023/12/07 08:21:29;;;;;;;17.42;8.32;;;;;;;2.76;78.47;99105.81;4484254;31;33304;-88
2023/12/07 08:23:58;;;;;;;15.68;8.38;;;;;;;2.81;77.17;99104.34;4484142;31;34579;-85
2023/12/07 08:26:27;;;;;;;26.02;20.33;;;;;;;2.54;79.69;99110.81;4485232;31;35518;-88
2023/12/07 08:28:56;;;;;;;27.65;20.27;;;;;;;2.51;79.24;99111.56;4499160;31;33321;-88
2023/12/07 08:31:24;;;;;;;17.55;8.20;;;;;;;2.62;79.14;99107.78;4498905;31;33083;-85
2023/12/07 08:33:52;;;;;;;16.95;7.75;;;;;;;2.10;80.57;99107.19;4496057;31;33580;-86
2023/12/07 08:36:20;;;;;;;16.00;8.07;;;;;;;2.63;79.47;99109.53;4499297;31;34017;-88
2023/12/07 08:38:48;;;;;;;13.45;7.28;;;;;;;2.72;78.81;99105.62;4489765;31;33475;-89
2023/12/07 08:41:16;;;;;;;15.07;7.55;;;;;;;2.44;80.17;99109.56;4495130;31;33954;-86
2023/12/07 08:43:43;;;;;;;16.65;8.65;;;;;;;2.74;79.05;99120.25;4486243;31;34206;-89
2023/12/07 08:46:11;;;;;;;23.50;17.02;;;;;;;2.62;78.79;99119.72;4493561;31;33558;-84
2023/12/07 08:48:38;;;;;;;18.62;7.87;;;;;;;2.99;77.27;99114.44;4485721;31;33716;-85
2023/12/07 08:51:09;;;;;;;19.45;16.67;;;;;;;2.82;77.75;99123.13;4500212;31;35384;-88
2023/12/07 08:53:40;;;;;;;10.93;6.53;;;;;;;2.96;77.08;99116.03;4506372;31;33579;-89
2023/12/07 08:56:08;;;;;;;20.27;16.87;;;;;;;2.46;79.45;99114.72;4511618;31;33731;-86
2023/12/07 08:58:36;;;;;;;16.90;8.43;;;;;;;2.78;77.92;99119.56;4508027;31;34005;-87
2023/12/07 09:01:03;;;;;;;15.95;7.32;;;;;;;3.19;76.52;99111.88;4504130;31;34154;-85
2023/12/07 09:03:31;;;;;;;24.83;18.20;;;;;;;2.91;77.48;99121.81;4513334;31;33780;-86
2023/12/07 09:06:01;;;;;;;14.98;7.65;;;;;;;2.59;78.53;99122.16;4500241;31;34482;-88
2023/12/07 09:08:28;;;;;;;12.73;6.40;;;;;;;2.59;79.12;99127.25;4498518;31;34132;-90
2023/12/07 09:10:56;;;;;;;21.00;7.10;;;;;;;2.55;79.21;99123.69;4512090;31;33523;-87
2023/12/07 09:13:24;;;;;;;16.12;7.28;;;;;;;2.57;79.36;99116.94;4491179;31;33244;-88
2023/12/07 09:15:51;;;;;;;12.05;7.45;;;;;;;2.47;78.62;99126.72;4501933;31;33861;-89
2023/12/07 09:18:19;;;;;;;23.25;18.75;;;;;;;2.43;79.12;99124.03;4499441;31;33625;-89
2023/12/07 09:20:46;;;;;;;14.90;7.93;;;;;;;2.63;78.75;99124.03;4499854;31;33500;-89
2023/12/07 09:23:17;;;;;;;16.23;7.30;;;;;;;2.49;79.24;99125.09;4503363;31;33602;-88
2023/12/07 09:25:45;;;;;;;13.60;7.05;;;;;;;2.98;77.37;99116.97;4505367;31;34903;-87
2023/12/07 09:28:13;;;;;;;16.80;7.70;;;;;;;2.83;77.69;99117.19;4511350;31;34236;-87
2023/12/07 09:30:40;;;;;;;17.83;8.45;;;;;;;2.82;78.02;99115.44;4509381;31;33546;-88
2023/12/07 09:33:10;;;;;;;23.85;19.10;;;;;;;1.97;80.90;99118.53;4489490;31;34655;-89
2023/12/07 09:35:39;;;;;;;16.30;8.27;;;;;;;2.03;81.43;99117.94;4499289;31;34067;-88
2023/12/07 09:38:06;;;;;;;13.88;8.20;;;;;;;2.60;80.11;99118.75;4506021;31;33901;-88
2023/12/07 09:40:34;;;;;;;17.83;9.57;;;;;;;2.29;80.54;99114.00;4498523;31;33481;-86
2023/12/07 09:43:02;;;;;;;14.13;8.07;;;;;;;2.58;79.16;99111.03;4505272;31;33007;-88
2023/12/07 09:45:29;;;;;;;24.60;19.10;;;;;;;2.89;77.80;99105.53;4494043;31;34100;-83
2023/12/07 09:47:59;;;;;;;14.55;8.57;;;;;;;2.56;78.70;99111.78;4484198;31;33822;-87
2023/12/07 09:50:27;;;;;;;23.25;18.73;;;;;;;2.44;79.74;99107.88;4504939;31;33342;-84
2023/12/07 09:52:57;;;;;;;22.25;18.50;;;;;;;2.53;79.00;99109.06;4514116;31;34563;-86
2023/12/07 09:55:28;;;;;;;15.75;7.82;;;;;;;2.44;78.85;99105.31;4500666;31;33145;-85
2023/12/07 09:57:58;;;;;;;21.50;17.85;;;;;;;2.77;78.33;99106.72;4514326;31;34787;-88
2023/12/07 10:00:25;;;;;;;16.20;8.40;;;;;;;2.56;78.50;99106.66;4514217;31;33416;-88
2023/12/07 10:02:53;;;;;;;23.30;19.08;;;;;;;2.56;78.97;99114.31;4505535;31;33954;-84
2023/12/07 10:05:22;;;;;;;17.23;8.18;;;;;;;2.42;79.27;99104.38;4502569;31;34027;-84
2023/12/07 10:07:50;;;;;;;14.10;9.10;;;;;;;2.77;78.94;99114.41;4504098;31;32763;-87
2023/12/07 10:10:18;;;;;;;16.48;9.00;;;;;;;2.88;78.76;99113.16;4503047;31;34127;-86
2023/12/07 10:12:55;;;;;;;23.25;18.12;;;;;;;2.69;79.22;99111.50;4504871;31;33762;-88
2023/12/07 10:15:23;;;;;;;14.90;8.40;;;;;;;2.82;78.11;99106.09;4504954;31;33953;-85
2023/12/07 10:17:56;;;;;;;14.38;7.50;;;;;;;2.29;79.84;99109.75;4504983;31;34354;-87
2023/12/07 10:20:29;;;;;;;17.20;8.70;;;;;;;2.11;81.44;99108.91;4500480;31;33562;-85
2023/12/07 10:23:03;;;;;;;18.27;9.27;;;;;;;2.17;81.49;99102.41;4488965;31;33778;-85
2023/12/07 10:25:32;;;;;;;17.10;8.43;;;;;;;2.24;81.09;99111.25;4503153;31;34032;-83
2023/12/07 10:28:00;;;;;;;18.37;9.00;;;;;;;2.22;81.67;99109.41;4503239;31;33549;-85
2023/12/07 10:30:28;;;;;;;20.33;17.42;;;;;;;2.72;79.21;99111.59;4488875;31;33126;-85
2023/12/07 10:32:56;;;;;;;16.70;8.30;;;;;;;2.52;79.80;99109.87;4503141;31;33255;-85
2023/12/07 10:35:25;;;;;;;23.38;19.20;;;;;;;2.45;80.24;99118.97;4507742;31;34161;-87
2023/12/07 10:37:53;;;;;;;12.37;6.68;;;;;;;2.44;79.88;99117.22;4511409;31;33093;-84
2023/12/07 10:40:20;;;;;;;13.62;7.82;;;;;;;2.36;80.11;99116.91;4514294;31;34251;-86
2023/12/07 10:42:48;;;;;;;13.65;7.20;;;;;;;2.14;81.19;99107.38;4517720;31;34524;-85
2023/12/07 10:45:16;;;;;;;19.17;8.80;;;;;;;2.78;79.14;99113.56;4502859;31;33826;-87
2023/12/07 10:47:44;;;;;;;16.20;9.07;;;;;;;2.57;79.62;99113.50;4488451;31;34736;-85
2023/12/07 10:50:13;;;;;;;18.27;9.18;;;;;;;2.37;80.32;99120.31;4502453;31;33629;-85
2023/12/07 10:52:45;;;;;;;18.42;8.60;;;;;;;2.71;79.16;99112.44;4488563;31;33548;-87
2023/12/07 10:55:18;;;;;;;17.80;9.15;;;;;;;2.21;80.12;99113.66;4491253;31;34295;-86
2023/12/07 10:57:46;;;;;;;23.58;20.52;;;;;;;2.57;79.69;99116.06;4504238;31;34804;-87
2023/12/07 11:00:15;;;;;;;18.00;9.82;;;;;;;2.36;80.33;99114.34;4504129;31;33093;-87
2023/12/07 11:02:43;;;;;;;29.08;24.33;;;;;;;2.38;80.34;99117.81;4500493;31;33852;-87
2023/12/07 11:05:11;;;;;;;23.75;10.00;;;;;;;2.47;80.20;99126.72;4496723;31;32978;-85
2023/12/07 11:07:58;;;;;;;20.88;10.25;;;;;;;2.82;78.28;99126.56;4502408;31;34041;-87
2023/12/07 11:10:32;;;;;;;28.70;23.00;;;;;;;2.43;80.60;99136.81;4501434;31;34215;-85
2023/12/07 11:13:22;;;;;;;21.35;9.90;;;;;;;2.38;80.53;99133.16;4515834;31;33523;-85
2023/12/07 11:15:49;;;;;;;42.85;19.95;;;;;;;3.04;78.30;99138.59;4489645;31;34165;-86
2023/12/07 11:18:17;;;;;;;21.25;12.23;;;;;;;2.98;78.27;99137.44;4504421;31;34323;-86
2023/12/07 11:20:47;;;;;;;16.85;9.60;;;;;;;2.94;77.79;99128.75;4499737;31;33425;-86
2023/12/07 11:23:21;;;;;;;15.98;8.50;;;;;;;2.59;78.82;99132.37;4499259;31;33872;-84
2023/12/07 11:25:52;;;;;;;20.75;10.48;;;;;;;2.11;81.46;99132.81;4513800;31;34099;-87
2023/12/07 11:28:34;;;;;;;20.45;10.98;;;;;;;2.65;79.43;99132.63;4486561;31;33449;-87
2023/12/07 11:31:02;;;;;;;18.73;10.90;;;;;;;2.44;80.70;99128.34;4492090;31;33656;-86
2023/12/07 11:33:29;;;;;;;22.65;10.13;;;;;;;2.39;80.31;99128.97;4504940;31;33715;-87
2023/12/07 11:36:02;;;;;;;31.70;27.77;;;;;;;2.97;78.82;99133.16;4495035;31;34802;-86
2023/12/07 11:38:30;;;;;;;21.15;11.55;;;;;;;2.78;78.80;99124.69;4505124;31;34472;-84
2023/12/07 11:40:58;;;;;;;25.95;12.48;;;;;;;3.17;77.59;99129.72;4490134;31;33609;-86